首页
METAR-TAF:

METAR-TAF

机场 :

阿维亚诺空军基地

Aviano, 意大利

纬度: 46-02N, 经度: 012-36E, 海拔: 128米

当前天气观测

该预报发布于42分钟前的11:55 UTC
风速3节,风向
温度 16°C
湿度 77%
气压 1023 hPa
能見度: 2800
少量云层高于2000英尺
散云层高于5000英尺
轻雾

METAR: LIPA 211155Z 19003KT 2800 BR FEW020 SCT050 16/12 Q1023 RMK SCT VIS MIN 2400SW WIND THR05 /////KT WIND THR23 /////KT A3023 YLO

时间: 14:37 (12:37 UTC)

预报

该预报发布于1小时和37分钟前的11:00 UTC
预报有效从21日的 12点(UTC)到 21日的 21点(UTC)
风速3节,风向多变
能見度: 6000
少量云层高于1500英尺
散云层高于4000英尺
成为
从 21日的 15点(UTC)到 21日的 17点(UTC)
能見度: 4000
轻雾
成为
从 21日的 17点(UTC)到 21日的 19点(UTC)
能見度: 2000
多云层高于1500英尺
轻雾

TAF: LIPA 211100Z 2112/2121 VRB03KT 6000 FEW015 SCT040 BECMG 2115/2117 4000 BR BECMG 2117/2119 2000 BR BKN015

超过4000个机场的气象观测和天气预报(METAR&TAF报告)。

可查询的气象台以黄色和红色小点在地图上表示。

将鼠标移到小点上方,可查看气象台名称。

然后点击查看天气观测和预报。

如需切换地图:点击带黑十字的绿色按钮放大地图;点击带横线的绿色按钮缩小地图;或者点击绿色箭头查看邻近地区的地图。


METAR-TAF: